Vientiane, Laos
Current Conditions -  °F | °C
As of 5:30 PM on Sunday 21 Dec 2014 (Local Time) from VLVT Reporting Station
Broken Clouds Broken Clouds  
Wind Chill: 79°   Ceiling: 4000
Heat Index: 79°   Visibility: 4mi
Dew Point: 48°   Wind: 12mph
Humidity: 34%   Direction: 40°NE
Pressure: 29.94"   Gusts: NA
Location:  17.97°N, 102.61°E
Report Text: VLVT 211030Z 04010KT 6000 BKN040 26/09 Q1014 NOSIG
Loading
Personal Weather Stations






























Interactive Weather Map New forecast layout! Learn more

10-Day Weather Forecast

Advertisements
Track Severe Weather on mobile